Time;durP1;ratioP1;P1;durP2;ratioP2;P2;SDS_P1;SDS_P2;PMS_P1;PMS_P2;Temp;Humidity;BMP_temperature;BMP_pressure;BME280_temperature;BME280_humidity;BME280_pressure;Samples;Min_cycle;Max_cycle;Signal;HPM_P1;HPM_P2
2020/04/01 00:01:06;;;;;;;10.9;8.8;;;;;;;-1.07;71.45605;942.8445;;;;
2020/04/01 00:03:30;;;;;;;12.1;8.6;;;;;;;-1.21;71.81055;942.8658;;;;
2020/04/01 00:06:13;;;;;;;11.2;8.9;;;;;;;-1.45;72.70117;942.8287;;;;
2020/04/01 00:08:38;;;;;;;13.2;8.8;;;;;;;-1.69;73.40234;942.653;;;;
2020/04/01 00:11:04;;;;;;;13.9;9.2;;;;;;;-1.66;73.26367;942.6686;;;;
2020/04/01 00:13:29;;;;;;;10.9;8.8;;;;;;;-1.76;73.44531;942.7469;;;;
2020/04/01 00:15:54;;;;;;;11.7;8.6;;;;;;;-1.77;73.21094;942.6755;;;;
2020/04/01 00:18:19;;;;;;;11.3;8.3;;;;;;;-1.89;73.76563;942.6526;;;;
2020/04/01 00:22:03;;;;;;;10.9;8.3;;;;;;;-2.15;74.27734;942.5436;;;;
2020/04/01 00:24:28;;;;;;;10.5;8.6;;;;;;;-2.04;73.80664;942.614;;;;
2020/04/01 00:26:53;;;;;;;10.1;8.2;;;;;;;-1.94;73.72656;942.4998;;;;
2020/04/01 00:29:18;;;;;;;9.7;8.3;;;;;;;-1.96;74.07617;942.5389;;;;
2020/04/01 00:31:43;;;;;;;10.1;8.3;;;;;;;-1.89;74.1123;942.5212;;;;
2020/04/01 00:34:08;;;;;;;13.7;10.3;;;;;;;-1.95;75.50977;942.5108;;;;
2020/04/01 00:36:33;;;;;;;15.6;11.5;;;;;;;-2;75.52246;942.4667;;;;
2020/04/01 00:39:28;;;;;;;16;11.7;;;;;;;-1.96;74.65234;942.4634;;;;
2020/04/01 00:42:08;;;;;;;16.6;11.8;;;;;;;-1.99;74.64746;942.385;;;;
2020/04/01 00:44:33;;;;;;;12.7;10;;;;;;;-2.04;74.34961;942.433;;;;
2020/04/01 00:46:58;;;;;;;12.5;10.1;;;;;;;-2.06;74.44629;942.3741;;;;
2020/04/01 00:49:23;;;;;;;11.6;9.3;;;;;;;-2.18;74.54785;942.4453;;;;
2020/04/01 00:51:51;;;;;;;12.8;9.7;;;;;;;-2.14;74.76465;942.3558;;;;
2020/04/01 00:54:16;;;;;;;15.8;9.7;;;;;;;-2.22;75.28223;942.4144;;;;
2020/04/01 00:56:50;;;;;;;13.1;9.3;;;;;;;-2.32;75.79785;942.3702;;;;
2020/04/01 00:59:15;;;;;;;11.1;9.3;;;;;;;-2.37;76.11816;942.3745;;;;
2020/04/01 01:01:41;;;;;;;11.4;9.2;;;;;;;-2.33;76.09375;942.2367;;;;
2020/04/01 01:04:06;;;;;;;13.3;9.4;;;;;;;-2.31;76.20898;942.2545;;;;
2020/04/01 01:06:36;;;;;;;12.6;9.3;;;;;;;-2.22;75.72559;942.2709;;;;
2020/04/01 01:09:01;;;;;;;11.2;9.3;;;;;;;-2.45;76.28418;942.2713;;;;
2020/04/01 01:11:26;;;;;;;11;8.9;;;;;;;-2.55;76.51953;942.267;;;;
2020/04/01 01:14:07;;;;;;;10.5;8.6;;;;;;;-2.48;76.52148;942.1889;;;;
2020/04/01 01:16:32;;;;;;;11.8;9.2;;;;;;;-2.63;76.87109;942.2494;;;;
2020/04/01 01:18:57;;;;;;;14;9.7;;;;;;;-2.65;77.12109;942.2695;;;;
2020/04/01 01:21:43;;;;;;;13.3;9.5;;;;;;;-2.51;76.42773;942.2297;;;;
2020/04/01 01:24:08;;;;;;;12.5;9.6;;;;;;;-2.55;76.22949;942.1638;;;;
2020/04/01 01:26:33;;;;;;;13.1;9.5;;;;;;;-2.52;76.12598;942.1417;;;;
2020/04/01 01:28:59;;;;;;;12.2;9.2;;;;;;;-2.53;76.11426;942.0978;;;;
2020/04/01 01:31:24;;;;;;;12.1;9.1;;;;;;;-2.43;75.58789;942.1036;;;;
2020/04/01 01:33:49;;;;;;;12.7;9;;;;;;;-2.59;76.20117;942.0692;;;;
2020/04/01 01:36:14;;;;;;;10;8.5;;;;;;;-2.55;76.1543;942.0213;;;;
2020/04/01 01:39:01;;;;;;;11.4;9.1;;;;;;;-2.77;76.9668;941.8995;;;;
2020/04/01 01:41:26;;;;;;;12.1;8.9;;;;;;;-2.83;77.25391;941.9959;;;;
2020/04/01 01:44:02;;;;;;;11.3;8.9;;;;;;;-2.88;77.3877;941.9933;;;;
2020/04/01 01:46:27;;;;;;;11.6;9.1;;;;;;;-2.86;77.43555;941.8113;;;;
2020/04/01 01:48:52;;;;;;;13.3;9;;;;;;;-2.89;77.58496;941.9247;;;;
2020/04/01 01:51:19;;;;;;;13.5;9.3;;;;;;;-2.98;78.05664;941.8826;;;;
2020/04/01 01:53:44;;;;;;;11.1;9;;;;;;;-3.01;78.00586;941.9187;;;;
2020/04/01 01:56:09;;;;;;;14.1;9.8;;;;;;;-2.94;77.875;941.9099;;;;
2020/04/01 01:58:34;;;;;;;14;10.1;;;;;;;-2.8;77.10352;941.9554;;;;
2020/04/01 02:01:48;;;;;;;12.7;9.7;;;;;;;-2.77;76.80078;941.9575;;;;
2020/04/01 02:04:19;;;;;;;12.4;9.5;;;;;;;-2.78;76.75293;941.8839;;;;
2020/04/01 02:06:44;;;;;;;12.9;9.8;;;;;;;-2.72;76.58789;941.8432;;;;
2020/04/01 02:09:09;;;;;;;12.5;9.7;;;;;;;-2.78;76.4668;941.8234;;;;
2020/04/01 02:11:34;;;;;;;16.1;9.8;;;;;;;-2.84;76.78711;941.7999;;;;
2020/04/01 02:13:59;;;;;;;12.8;9.5;;;;;;;-3;77.32129;941.809;;;;
2020/04/01 02:16:24;;;;;;;12.8;9.5;;;;;;;-3.18;78.17285;941.7491;;;;
2020/04/01 02:18:49;;;;;;;11.8;9.7;;;;;;;-3.18;78.20801;941.8233;;;;
2020/04/01 02:21:20;;;;;;;11.8;9.7;;;;;;;-3.17;78.08594;941.822;;;;
2020/04/01 02:24:18;;;;;;;12.8;9.8;;;;;;;-3.3;78.59277;941.7533;;;;
2020/04/01 02:26:57;;;;;;;13.6;9.6;;;;;;;-3.22;78.24316;941.7184;;;;
2020/04/01 02:29:22;;;;;;;12.8;9.6;;;;;;;-3.29;78.69531;941.7629;;;;
2020/04/01 02:31:49;;;;;;;15.8;9.6;;;;;;;-3.28;78.64063;941.7104;;;;
2020/04/01 02:34:14;;;;;;;11.9;9.7;;;;;;;-3.31;78.85449;941.6809;;;;
2020/04/01 02:38:46;;;;;;;12;9.6;;;;;;;-3.43;79.11035;941.6708;;;;
2020/04/01 02:41:25;;;;;;;16.5;11;;;;;;;-3.31;78.79004;941.6523;;;;
2020/04/01 02:45:19;;;;;;;13.4;10.2;;;;;;;-3.19;77.81738;941.6233;;;;
2020/04/01 02:47:55;;;;;;;15.5;10.2;;;;;;;-3.28;78.13184;941.5989;;;;
2020/04/01 02:50:20;;;;;;;15.7;10.6;;;;;;;-3.34;78.40918;941.632;;;;
2020/04/01 02:52:45;;;;;;;17.3;11.1;;;;;;;-3.37;78.24805;941.5097;;;;
2020/04/01 02:55:11;;;;;;;15.8;10.3;;;;;;;-3.45;78.01367;941.5676;;;;
2020/04/01 02:58:37;;;;;;;16.4;10.8;;;;;;;-3.35;77.7207;941.5023;;;;
2020/04/01 03:01:03;;;;;;;16;10.4;;;;;;;-3.44;77.94727;941.43;;;;
2020/04/01 03:03:28;;;;;;;14.6;10.2;;;;;;;-3.51;78.14551;941.3665;;;;
2020/04/01 03:05:53;;;;;;;14.3;10;;;;;;;-3.58;78.68359;941.5402;;;;
2020/04/01 03:08:18;;;;;;;14.3;10.3;;;;;;;-3.66;79.24414;941.442;;;;
2020/04/01 03:10:43;;;;;;;12.6;9.5;;;;;;;-3.63;79.2832;941.4561;;;;
2020/04/01 03:13:19;;;;;;;13.8;9.7;;;;;;;-3.5;79.04199;941.4341;;;;
2020/04/01 03:16:51;;;;;;;13.2;8.9;;;;;;;-3.66;78.87891;941.3997;;;;
2020/04/01 03:19:16;;;;;;;14;9.6;;;;;;;-3.6;78.91211;941.4267;;;;
2020/04/01 03:21:41;;;;;;;12.5;9.5;;;;;;;-3.65;78.96875;941.3934;;;;
2020/04/01 03:24:06;;;;;;;12.9;9.6;;;;;;;-3.71;79.11328;941.4532;;;;
2020/04/01 03:26:31;;;;;;;14.5;10.3;;;;;;;-3.71;79.04688;941.405;;;;
2020/04/01 03:28:56;;;;;;;13.4;9.5;;;;;;;-3.7;79.05762;941.3876;;;;
2020/04/01 03:31:21;;;;;;;15.2;9.9;;;;;;;-3.7;78.9248;941.3502;;;;
2020/04/01 03:33:47;;;;;;;12.5;9.3;;;;;;;-3.73;79.10742;941.3025;;;;
2020/04/01 03:36:12;;;;;;;13.7;9.4;;;;;;;-3.74;78.89844;941.2773;;;;
2020/04/01 03:38:37;;;;;;;14.7;9.4;;;;;;;-3.8;79.22656;941.3553;;;;
2020/04/01 03:41:07;;;;;;;12.8;8.9;;;;;;;-3.78;79.14355;941.315;;;;
2020/04/01 03:43:32;;;;;;;17.6;9.8;;;;;;;-3.82;79.38867;941.2026;;;;
2020/04/01 03:45:57;;;;;;;13.7;9.5;;;;;;;-3.71;78.88086;941.2809;;;;
2020/04/01 03:48:22;;;;;;;13.9;9.5;;;;;;;-3.65;78.60449;941.2776;;;;
2020/04/01 03:50:47;;;;;;;15.9;10.3;;;;;;;-3.56;78.15918;941.2287;;;;
2020/04/01 03:53:12;;;;;;;14.2;9.7;;;;;;;-3.4;77.60156;941.22;;;;
2020/04/01 03:55:42;;;;;;;15.8;9.9;;;;;;;-3.38;77.14258;941.2083;;;;
2020/04/01 03:58:07;;;;;;;13.3;9.5;;;;;;;-3.43;77.06641;941.2171;;;;
2020/04/01 04:03:24;;;;;;;16.2;10.9;;;;;;;-3.3;76.61426;941.2004;;;;
2020/04/01 04:05:49;;;;;;;13.7;9.9;;;;;;;-3.32;76.2002;941.1633;;;;
2020/04/01 04:08:14;;;;;;;14.5;10.4;;;;;;;-3.61;77.11035;941.2427;;;;
2020/04/01 04:10:39;;;;;;;14.9;10.2;;;;;;;-3.76;77.97656;941.2662;;;;
2020/04/01 04:14:07;;;;;;;14.3;9.9;;;;;;;-3.81;78.2334;941.2634;;;;
2020/04/01 04:16:33;;;;;;;15.3;9.8;;;;;;;-3.76;78.18652;941.2619;;;;
2020/04/01 04:18:59;;;;;;;15.3;9.6;;;;;;;-3.72;78.14844;941.2789;;;;
2020/04/01 04:21:33;;;;;;;13.9;10;;;;;;;-3.72;78.07129;941.187;;;;
2020/04/01 04:23:49;;;;;;;13;9.5;;;;;;;-3.71;78.04199;941.1149;;;;
2020/04/01 04:26:14;;;;;;;16.7;9.8;;;;;;;-3.74;78.15625;941.1064;;;;
2020/04/01 04:28:39;;;;;;;14.6;9.9;;;;;;;-3.83;78.53711;941.1401;;;;
2020/04/01 04:31:04;;;;;;;14.5;10.4;;;;;;;-3.92;78.85156;941.1906;;;;
2020/04/01 04:33:38;;;;;;;19;10.2;;;;;;;-3.92;78.95215;941.1947;;;;
2020/04/01 04:36:03;;;;;;;14.9;9.6;;;;;;;-3.84;78.31445;941.1462;;;;
2020/04/01 04:38:29;;;;;;;18.8;10.3;;;;;;;-3.8;78.06934;941.1384;;;;
2020/04/01 04:40:54;;;;;;;13.1;9.9;;;;;;;-3.85;76.99902;941.1462;;;;
2020/04/01 04:43:39;;;;;;;13.7;9.5;;;;;;;-3.7;74.92773;941.1199;;;;
2020/04/01 04:47:33;;;;;;;13.5;9.7;;;;;;;-3.84;77.48828;941.155;;;;
2020/04/01 04:49:58;;;;;;;17.2;11.8;;;;;;;-3.89;78.24023;941.1531;;;;
2020/04/01 04:52:23;;;;;;;15.6;11.5;;;;;;;-3.86;78.37695;941.108;;;;
2020/04/01 04:54:49;;;;;;;19.5;11.4;;;;;;;-3.92;78.77344;941.0848;;;;
2020/04/01 04:57:13;;;;;;;19.4;11.2;;;;;;;-3.95;79.04492;941.1481;;;;
2020/04/01 04:59:38;;;;;;;18.5;11.5;;;;;;;-3.88;78.89063;941.1731;;;;
2020/04/01 05:02:03;;;;;;;19;12.2;;;;;;;-3.85;78.67676;941.1618;;;;
2020/04/01 05:04:28;;;;;;;82.7;51.5;;;;;;;-3.85;78.18066;941.1761;;;;
2020/04/01 05:06:54;;;;;;;21.6;14.4;;;;;;;-3.76;77.75586;941.1859;;;;
2020/04/01 05:09:18;;;;;;;24.6;12.4;;;;;;;-3.75;77.60254;941.1378;;;;
2020/04/01 05:11:44;;;;;;;19.5;12;;;;;;;-3.78;77.36621;941.188;;;;
2020/04/01 05:14:09;;;;;;;24.1;14.7;;;;;;;-3.85;77.59668;941.2688;;;;
2020/04/01 05:16:34;;;;;;;20.4;12.7;;;;;;;-4.09;78.64355;941.2371;;;;
2020/04/01 05:18:59;;;;;;;16.2;12;;;;;;;-4.12;78.91504;941.1395;;;;
2020/04/01 05:21:24;;;;;;;20;11.7;;;;;;;-4.07;78.9248;941.1937;;;;
2020/04/01 05:23:49;;;;;;;20.2;12.6;;;;;;;-3.95;78.48145;941.1195;;;;
2020/04/01 05:26:14;;;;;;;16.1;11.8;;;;;;;-3.9;77.96094;941.1905;;;;
2020/04/01 05:28:39;;;;;;;18.3;11.5;;;;;;;-3.82;77.77832;941.2118;;;;
2020/04/01 05:31:04;;;;;;;19.7;12;;;;;;;-3.61;77.12207;941.1799;;;;
2020/04/01 05:33:29;;;;;;;20.8;12;;;;;;;-3.63;76.78711;941.1536;;;;
2020/04/01 05:35:54;;;;;;;20.4;12.6;;;;;;;-3.7;77.08301;941.0689;;;;
2020/04/01 05:38:19;;;;;;;22.5;15.5;;;;;;;-3.64;76.84961;941.1147;;;;
2020/04/01 05:40:45;;;;;;;20.7;12.1;;;;;;;-3.63;77.05176;941.1141;;;;
2020/04/01 05:43:10;;;;;;;22.6;12.2;;;;;;;-3.53;77.11426;941.0825;;;;
2020/04/01 05:45:44;;;;;;;25.8;12.4;;;;;;;-3.46;78.58594;941.0507;;;;
2020/04/01 05:48:09;;;;;;;32.7;15;;;;;;;-3.13;76.64453;941.0039;;;;
2020/04/01 05:50:34;;;;;;;23.2;13;;;;;;;-2.8;74.97949;940.9675;;;;
2020/04/01 05:52:59;;;;;;;31.9;14.8;;;;;;;-2.55;74.09277;940.9095;;;;
2020/04/01 05:55:24;;;;;;;25.3;13.8;;;;;;;-2.07;72.71582;940.8953;;;;
2020/04/01 05:58:10;;;;;;;22.3;11.7;;;;;;;-1.18;69.43848;940.8467;;;;
2020/04/01 06:00:14;;;;;;;19.1;10.9;;;;;;;-0.22;65.52246;940.7562;;;;
2020/04/01 06:02:40;;;;;;;22.6;11.1;;;;;;;0.71;62.55078;940.7653;;;;
2020/04/01 06:05:11;;;;;;;18.6;9.6;;;;;;;2.02;57.93359;940.6968;;;;
2020/04/01 06:07:30;;;;;;;15.5;9.7;;;;;;;2.85;53.23633;940.665;;;;
2020/04/01 06:09:55;;;;;;;20.4;9.5;;;;;;;2.92;52.85156;940.6663;;;;
2020/04/01 06:12:20;;;;;;;18;10.1;;;;;;;3.24;52.09473;940.6006;;;;
2020/04/01 06:14:54;;;;;;;22.2;10.3;;;;;;;3.59;48.03613;940.5792;;;;
2020/04/01 06:17:19;;;;;;;10.3;6.8;;;;;;;3.07;49.50391;940.5595;;;;
2020/04/01 06:20:11;;;;;;;12.5;6.9;;;;;;;4.48;47.23633;940.5556;;;;
2020/04/01 06:22:36;;;;;;;15.7;8.2;;;;;;;4.98;46.3125;940.4855;;;;
2020/04/01 06:25:01;;;;;;;12;8.3;;;;;;;5.1;45.44531;940.45;;;;
2020/04/01 06:27:26;;;;;;;18.5;8;;;;;;;5.31;45.38965;940.4424;;;;
2020/04/01 06:29:51;;;;;;;12.4;7;;;;;;;5.28;44.6875;940.4367;;;;
2020/04/01 06:32:17;;;;;;;11.7;7.4;;;;;;;5.14;44.47949;940.4175;;;;
2020/04/01 06:34:42;;;;;;;9;6.1;;;;;;;5.09;43.69727;940.3561;;;;
2020/04/01 06:37:07;;;;;;;15.6;6.8;;;;;;;5.26;42.19238;940.3033;;;;
2020/04/01 06:39:32;;;;;;;8.1;6.3;;;;;;;4.84;43.50293;940.2377;;;;
2020/04/01 06:41:57;;;;;;;9.4;6.1;;;;;;;5.53;42.89551;940.1244;;;;
2020/04/01 06:44:22;;;;;;;9.4;6;;;;;;;5.81;41.17383;940.1707;;;;
2020/04/01 06:46:47;;;;;;;17;6.9;;;;;;;6.48;40.07324;940.1538;;;;
2020/04/01 06:49:20;;;;;;;11.9;5.9;;;;;;;6.14;40.33496;940.0994;;;;
2020/04/01 06:52:46;;;;;;;8.2;6.5;;;;;;;5.83;40.9707;940.0707;;;;
2020/04/01 06:55:11;;;;;;;9.4;6.4;;;;;;;5.69;41.55664;940.0638;;;;
2020/04/01 06:57:36;;;;;;;8.9;5.8;;;;;;;5.81;42.6416;940.0655;;;;
2020/04/01 07:00:02;;;;;;;6.8;5.8;;;;;;;5.96;40.36328;940.0228;;;;
2020/04/01 07:02:27;;;;;;;9.1;5.7;;;;;;;6.7;42.07422;940.0717;;;;
2020/04/01 07:04:52;;;;;;;10.6;6.2;;;;;;;7.35;39.17969;939.9584;;;;
2020/04/01 07:07:17;;;;;;;8.2;5.8;;;;;;;8.02;35.98242;939.8843;;;;
2020/04/01 07:09:42;;;;;;;7.7;5.6;;;;;;;7.7;36.01367;939.8736;;;;
2020/04/01 07:12:07;;;;;;;9.8;6.1;;;;;;;8.37;36.60254;939.8208;;;;
2020/04/01 07:14:32;;;;;;;11.3;6.2;;;;;;;8.93;34.95508;939.7935;;;;
2020/04/01 07:17:39;;;;;;;8.2;5.8;;;;;;;10.46;33.61914;939.7664;;;;
2020/04/01 07:20:04;;;;;;;8.7;5.8;;;;;;;9.42;33.17383;939.7414;;;;
2020/04/01 07:22:36;;;;;;;8.2;5.7;;;;;;;8.36;34.37598;939.7437;;;;
2020/04/01 07:25:01;;;;;;;9.3;6.4;;;;;;;8.49;34.26074;939.6981;;;;
2020/04/01 07:27:27;;;;;;;8.6;6.1;;;;;;;8.66;35.68359;939.7048;;;;
2020/04/01 07:29:52;;;;;;;9.1;5.8;;;;;;;9.12;34.75488;939.704;;;;
2020/04/01 07:33:51;;;;;;;13.5;6.1;;;;;;;8.13;35.28809;939.6813;;;;
2020/04/01 07:36:30;;;;;;;7;5.5;;;;;;;8.36;35.84082;939.6555;;;;
2020/04/01 07:40:59;;;;;;;7.6;5.8;;;;;;;10.15;31.31348;939.6136;;;;
2020/04/01 07:43:24;;;;;;;6.8;5.1;;;;;;;9.83;32.57813;939.5764;;;;
2020/04/01 07:45:49;;;;;;;5.7;5.1;;;;;;;11.3;30.56152;939.6035;;;;
2020/04/01 07:48:15;;;;;;;5.9;4.6;;;;;;;12.51;28.05469;939.5644;;;;
2020/04/01 07:50:40;;;;;;;7;4.8;;;;;;;12.03;27.74902;939.5527;;;;
2020/04/01 07:53:05;;;;;;;5.7;4.7;;;;;;;13.17;27.99316;939.5639;;;;
2020/04/01 07:55:30;;;;;;;6.8;4.7;;;;;;;14.51;25.74121;939.5355;;;;
2020/04/01 07:57:55;;;;;;;6.9;4.8;;;;;;;15.19;24.5;939.4808;;;;
2020/04/01 08:00:20;;;;;;;5.8;4.5;;;;;;;15.92;23.65039;939.4124;;;;
2020/04/01 08:02:45;;;;;;;6.4;4.7;;;;;;;16.26;21.39063;939.4634;;;;
2020/04/01 08:05:15;;;;;;;7.9;4.5;;;;;;;15;21.93945;939.4495;;;;
2020/04/01 08:07:35;;;;;;;5.5;4.6;;;;;;;15;23.60059;939.4319;;;;
2020/04/01 08:10:00;;;;;;;9.5;4.9;;;;;;;14.46;22.96191;939.4387;;;;
2020/04/01 08:12:25;;;;;;;7.7;4.4;;;;;;;15.19;24.1084;939.3942;;;;
2020/04/01 08:15:07;;;;;;;5.9;4.2;;;;;;;15.76;23.60742;939.3926;;;;
2020/04/01 08:17:32;;;;;;;6.1;4.3;;;;;;;17.47;20.34766;939.3074;;;;
2020/04/01 08:21:51;;;;;;;6.2;4.2;;;;;;;18.04;21.0127;939.2977;;;;
2020/04/01 08:24:17;;;;;;;5.1;4.2;;;;;;;17.37;21.17773;939.2709;;;;
2020/04/01 08:26:42;;;;;;;6;4.3;;;;;;;18.94;19.03027;939.205;;;;
2020/04/01 08:29:07;;;;;;;5.7;4.1;;;;;;;18.25;18.00098;939.2981;;;;
2020/04/01 08:31:32;;;;;;;4.6;3.8;;;;;;;14.7;21.61328;939.2385;;;;
2020/04/01 08:33:57;;;;;;;8.7;4.1;;;;;;;16.34;20.33008;939.2327;;;;
2020/04/01 08:36:22;;;;;;;7.8;4.3;;;;;;;17.15;20.70313;939.1522;;;;
2020/04/01 08:39:14;;;;;;;4.8;4.2;;;;;;;19.47;18.54004;939.1771;;;;
2020/04/01 08:41:39;;;;;;;5.8;4.4;;;;;;;18.36;20.7959;939.1614;;;;
2020/04/01 08:44:04;;;;;;;5.2;3.7;;;;;;;19.04;19.72168;939.0942;;;;
2020/04/01 08:46:42;;;;;;;5.5;3.8;;;;;;;17.85;19.06445;939.0622;;;;
2020/04/01 08:49:07;;;;;;;7.3;4;;;;;;;16.45;20.94824;939.0831;;;;
2020/04/01 08:51:34;;;;;;;5.8;3.6;;;;;;;15.53;20.39551;939.1026;;;;
2020/04/01 08:53:59;;;;;;;4.5;3.8;;;;;;;16.97;20.2666;939.0105;;;;
2020/04/01 08:56:24;;;;;;;7.6;3.6;;;;;;;17.65;18.84668;939.0036;;;;
2020/04/01 08:58:49;;;;;;;4.7;3.6;;;;;;;18.62;19.09766;938.9865;;;;
2020/04/01 09:01:14;;;;;;;6.3;4;;;;;;;19.84;18.47363;938.943;;;;
2020/04/01 09:03:39;;;;;;;4.5;3.6;;;;;;;19.57;19.13867;939.0466;;;;
2020/04/01 09:06:04;;;;;;;4.4;3.8;;;;;;;21.32;16.05469;938.9267;;;;
2020/04/01 09:08:29;;;;;;;5.2;3.4;;;;;;;21.74;16.63281;938.9464;;;;
2020/04/01 09:12:31;;;;;;;4.9;3.5;;;;;;;20.6;18.36621;938.8719;;;;
2020/04/01 09:14:56;;;;;;;6.7;4.1;;;;;;;21;18.28906;938.8926;;;;
2020/04/01 09:17:21;;;;;;;7.6;4.3;;;;;;;20.4;18.59082;938.8875;;;;
2020/04/01 09:19:57;;;;;;;6.7;4.3;;;;;;;20.64;18.50781;938.8275;;;;
2020/04/01 09:22:45;;;;;;;5.7;4.2;;;;;;;20.26;19.07617;938.8071;;;;
2020/04/01 09:25:15;;;;;;;5;3.8;;;;;;;19.36;19.94531;938.7935;;;;
2020/04/01 09:27:40;;;;;;;5.5;3.7;;;;;;;18.54;19.65234;938.726;;;;
2020/04/01 09:32:19;;;;;;;6;3.9;;;;;;;16.48;21.33203;938.7355;;;;
2020/04/01 09:34:44;;;;;;;5.1;3.7;;;;;;;15.9;21.82324;938.6713;;;;
2020/04/01 09:37:09;;;;;;;4.8;3.7;;;;;;;15.57;22.8584;938.725;;;;
2020/04/01 09:39:34;;;;;;;5.5;3.8;;;;;;;15.79;22.77734;938.7252;;;;
2020/04/01 09:42:01;;;;;;;5;3.9;;;;;;;15.59;23.27539;938.6488;;;;
2020/04/01 09:44:31;;;;;;;6.5;3.9;;;;;;;15.2;23.61133;938.6208;;;;
2020/04/01 09:47:01;;;;;;;5;3.8;;;;;;;15.77;22.4873;938.6049;;;;
2020/04/01 09:49:26;;;;;;;6.1;4;;;;;;;15.88;23.8457;938.6426;;;;
2020/04/01 09:51:52;;;;;;;6.2;4;;;;;;;15.85;23.86719;938.6317;;;;
2020/04/01 09:54:17;;;;;;;6.1;4.6;;;;;;;15.37;24.52246;938.5996;;;;
2020/04/01 09:56:42;;;;;;;8;4.7;;;;;;;15.49;24.22852;938.5492;;;;
2020/04/01 09:59:07;;;;;;;5.6;4.8;;;;;;;14.59;26.36816;938.5174;;;;
2020/04/01 10:01:32;;;;;;;5.8;4.7;;;;;;;14.38;26.67773;938.5524;;;;
2020/04/01 10:04:20;;;;;;;6.4;4.7;;;;;;;14.3;26.77637;938.5134;;;;
2020/04/01 10:06:45;;;;;;;5.9;4.8;;;;;;;14.56;27.32324;938.4903;;;;
2020/04/01 10:10:26;;;;;;;6.6;4.8;;;;;;;13.76;28.53809;938.4328;;;;
2020/04/01 10:12:51;;;;;;;6.5;4.7;;;;;;;13.73;28.24805;938.4377;;;;
2020/04/01 10:15:16;;;;;;;6;4.7;;;;;;;14.29;27.13281;938.4189;;;;
2020/04/01 10:17:41;;;;;;;6.2;4.8;;;;;;;14.35;28.35742;938.4019;;;;
2020/04/01 10:20:07;;;;;;;5.6;4.7;;;;;;;14.58;27.45117;938.3211;;;;
2020/04/01 10:22:32;;;;;;;7.4;5;;;;;;;14.2;28.90039;938.3758;;;;
2020/04/01 10:24:57;;;;;;;5.8;4.7;;;;;;;14.16;29.28906;938.3423;;;;
2020/04/01 10:27:22;;;;;;;6.4;5;;;;;;;14.35;29.00293;938.2784;;;;
2020/04/01 10:29:47;;;;;;;6.9;5.1;;;;;;;14.35;28.86523;938.2441;;;;
2020/04/01 10:32:12;;;;;;;5.7;5.1;;;;;;;14.57;29.77832;938.1873;;;;
2020/04/01 10:34:37;;;;;;;7.2;5.1;;;;;;;14.32;29.16211;938.0905;;;;
2020/04/01 10:37:02;;;;;;;5.8;5.2;;;;;;;14.03;29.84473;938.1364;;;;
2020/04/01 10:39:27;;;;;;;6.7;5.2;;;;;;;13.72;29.82324;938.0728;;;;
2020/04/01 10:41:59;;;;;;;7.1;5.3;;;;;;;13.66;30.32617;938.1122;;;;
2020/04/01 10:44:24;;;;;;;7.3;5.2;;;;;;;13.99;29.29004;938.0545;;;;
2020/04/01 10:47:00;;;;;;;5.8;5;;;;;;;13.88;30.47949;937.9749;;;;
2020/04/01 10:49:25;;;;;;;6.2;5;;;;;;;14.2;28.80859;937.9545;;;;
2020/04/01 10:51:50;;;;;;;19.7;9.4;;;;;;;13.39;30.75488;937.9242;;;;
2020/04/01 10:54:15;;;;;;;13;7.1;;;;;;;12.92;31.30664;937.9088;;;;
2020/04/01 10:56:40;;;;;;;12.2;7.1;;;;;;;13.37;31.33984;937.9363;;;;
2020/04/01 10:59:06;;;;;;;13.5;7.5;;;;;;;13.39;31.35254;937.8571;;;;
2020/04/01 11:01:30;;;;;;;7.1;5.4;;;;;;;12.87;32.50879;937.808;;;;
2020/04/01 11:03:56;;;;;;;5.7;4.9;;;;;;;13.07;32.54688;937.7891;;;;
2020/04/01 11:06:34;;;;;;;6.3;5.6;;;;;;;13.35;30.36133;937.7356;;;;
2020/04/01 11:09:00;;;;;;;6.5;5.1;;;;;;;14.27;30.71387;937.759;;;;
2020/04/01 11:11:25;;;;;;;6.8;5.4;;;;;;;14.36;29.98242;937.6191;;;;
2020/04/01 11:13:50;;;;;;;6;5.1;;;;;;;15.01;28.93164;937.5826;;;;
2020/04/01 11:16:15;;;;;;;6.7;5.3;;;;;;;14.58;29.27148;937.5382;;;;
2020/04/01 11:18:43;;;;;;;7.9;5.4;;;;;;;14.94;28.2002;937.5424;;;;
2020/04/01 11:21:08;;;;;;;6;4.8;;;;;;;14.44;29.15918;937.3965;;;;
2020/04/01 11:23:33;;;;;;;6.6;5;;;;;;;15.19;28.89746;937.4658;;;;
2020/04/01 11:25:58;;;;;;;7;5;;;;;;;15.67;28.1084;937.4275;;;;
2020/04/01 11:28:23;;;;;;;6.8;5;;;;;;;16.55;26.42871;937.3767;;;;
2020/04/01 11:30:48;;;;;;;6.8;4.8;;;;;;;15.36;28.41211;937.3592;;;;
2020/04/01 11:33:13;;;;;;;6.2;4.8;;;;;;;17.16;26.14063;937.344;;;;
2020/04/01 11:35:39;;;;;;;5.9;5;;;;;;;17.54;24.80566;937.3772;;;;
2020/04/01 11:38:04;;;;;;;7.2;4.9;;;;;;;18.69;23.76563;937.2723;;;;
2020/04/01 11:40:29;;;;;;;6;4.8;;;;;;;17.3;25.29102;937.2903;;;;
2020/04/01 11:42:54;;;;;;;6.2;4.8;;;;;;;17.6;25.43555;937.1956;;;;
2020/04/01 11:45:19;;;;;;;6.9;4.7;;;;;;;16.17;26.70605;937.1616;;;;
2020/04/01 11:47:44;;;;;;;6.3;5;;;;;;;15.8;27.13477;937.152;;;;
2020/04/01 11:50:09;;;;;;;7.1;5.1;;;;;;;15.46;27.94434;937.0825;;;;
2020/04/01 11:52:40;;;;;;;6.6;5;;;;;;;15.57;27.51367;937.0948;;;;
2020/04/01 11:55:05;;;;;;;7.4;5.1;;;;;;;16.91;27.53906;937.0906;;;;
2020/04/01 11:57:30;;;;;;;6.6;4.6;;;;;;;16.13;26.72754;936.942;;;;
2020/04/01 11:59:56;;;;;;;7.2;5;;;;;;;15.46;28.2793;936.9863;;;;
2020/04/01 12:02:20;;;;;;;6.6;4.9;;;;;;;16.96;25.10938;936.9175;;;;
2020/04/01 12:04:45;;;;;;;9.8;4.8;;;;;;;18.59;23.52734;936.8796;;;;
2020/04/01 12:07:10;;;;;;;7.3;4.7;;;;;;;18.67;22.91504;936.8953;;;;
2020/04/01 12:09:45;;;;;;;6.8;4.8;;;;;;;18.01;23.92676;936.9425;;;;
2020/04/01 12:12:10;;;;;;;11.7;4.8;;;;;;;19.69;21.02148;936.781;;;;
2020/04/01 12:14:35;;;;;;;5.9;4.9;;;;;;;19.11;23.10156;936.7275;;;;
2020/04/01 12:17:00;;;;;;;7.6;4.6;;;;;;;18.1;24.34961;936.796;;;;
2020/04/01 12:19:25;;;;;;;7.4;5.5;;;;;;;17.11;25.60547;936.7252;;;;
2020/04/01 12:21:50;;;;;;;12.3;5.4;;;;;;;17.46;24.05859;936.7861;;;;
2020/04/01 12:24:15;;;;;;;7.6;5;;;;;;;17.66;24.62695;936.7214;;;;
2020/04/01 12:26:40;;;;;;;6.3;4.9;;;;;;;18.88;22.1582;936.675;;;;
2020/04/01 12:29:05;;;;;;;7.2;5.1;;;;;;;17.93;24.36426;936.6549;;;;
2020/04/01 12:31:32;;;;;;;6.8;5.4;;;;;;;18.68;22.68359;936.5609;;;;
2020/04/01 12:33:57;;;;;;;6.1;4.9;;;;;;;19.52;22.26074;936.5759;;;;
2020/04/01 12:37:35;;;;;;;5.3;4.8;;;;;;;19.35;22.16992;936.3832;;;;
2020/04/01 12:40:00;;;;;;;6.5;5.2;;;;;;;19.26;22.79492;936.5341;;;;
2020/04/01 12:42:25;;;;;;;6.8;5.2;;;;;;;16.12;27.21289;936.5549;;;;
2020/04/01 12:44:50;;;;;;;7.5;5;;;;;;;16.17;26.35938;936.5405;;;;
2020/04/01 12:47:15;;;;;;;6.6;5.2;;;;;;;17.69;25.20898;936.51;;;;
2020/04/01 12:49:40;;;;;;;5.9;5.1;;;;;;;18.9;23.34668;936.4461;;;;
2020/04/01 12:52:05;;;;;;;7.8;5.1;;;;;;;18.06;23.89453;936.455;;;;
2020/04/01 12:54:30;;;;;;;6.4;5.4;;;;;;;18.32;23.95508;936.4106;;;;
2020/04/01 12:57:05;;;;;;;6.5;5;;;;;;;16.98;25.68945;936.3516;;;;
2020/04/01 12:59:30;;;;;;;6.1;5.1;;;;;;;17.65;25.99609;936.3035;;;;
2020/04/01 13:01:55;;;;;;;5.7;5;;;;;;;16.22;26.48926;936.3464;;;;
2020/04/01 13:04:20;;;;;;;6.9;5.3;;;;;;;14.92;28.79883;936.3063;;;;
2020/04/01 13:06:45;;;;;;;7.6;5.3;;;;;;;14.76;29.69922;936.3195;;;;
2020/04/01 13:09:10;;;;;;;8.3;5.3;;;;;;;16.31;25.89355;936.2631;;;;
2020/04/01 13:11:36;;;;;;;6.8;5.2;;;;;;;16.38;25.35449;936.2128;;;;
2020/04/01 13:14:01;;;;;;;7.7;4.9;;;;;;;16.75;25.66406;936.2221;;;;
2020/04/01 13:16:25;;;;;;;6.4;5.1;;;;;;;17.43;25.06641;936.1396;;;;
2020/04/01 13:18:51;;;;;;;6.4;5.4;;;;;;;16.91;25.74316;936.1624;;;;
2020/04/01 13:21:16;;;;;;;9.7;5.9;;;;;;;15.58;28.10254;936.1195;;;;
2020/04/01 13:23:54;;;;;;;7.9;5.3;;;;;;;15;28.5498;936.0577;;;;
2020/04/01 13:27:38;;;;;;;5.9;5.3;;;;;;;15.71;26.82813;936.0928;;;;
2020/04/01 13:30:20;;;;;;;6.4;5;;;;;;;15.63;26.73145;936.0128;;;;
2020/04/01 13:32:56;;;;;;;7.2;5.3;;;;;;;14.87;28.08008;936.0222;;;;
2020/04/01 13:35:36;;;;;;;6.2;5.1;;;;;;;14.58;28.33789;935.9788;;;;
2020/04/01 13:38:00;;;;;;;6.3;5.1;;;;;;;14.91;29.88184;935.9551;;;;
2020/04/01 13:40:25;;;;;;;7.8;5.6;;;;;;;13.7;30.17871;935.8516;;;;
2020/04/01 13:43:07;;;;;;;8.5;5.4;;;;;;;14.05;30.61719;935.8833;;;;
2020/04/01 13:45:47;;;;;;;7.5;5.3;;;;;;;14.31;29.3457;935.9222;;;;
2020/04/01 13:50:22;;;;;;;7.5;5.5;;;;;;;13.63;30.50781;935.8544;;;;
2020/04/01 13:52:47;;;;;;;7.9;5.6;;;;;;;13.76;30.28711;935.8335;;;;
2020/04/01 13:57:20;;;;;;;7.4;5.7;;;;;;;12.95;32.8252;935.8275;;;;
2020/04/01 13:59:45;;;;;;;6.4;5.5;;;;;;;12.69;33.75781;935.7697;;;;
2020/04/01 14:02:10;;;;;;;7.8;5.7;;;;;;;12.26;32.47461;935.8116;;;;
2020/04/01 14:04:35;;;;;;;9.3;5.6;;;;;;;12.14;32.74121;935.8289;;;;
2020/04/01 14:07:14;;;;;;;7.3;5.6;;;;;;;12.11;32.24609;935.793;;;;
2020/04/01 14:09:39;;;;;;;9.1;6;;;;;;;12.07;33.15918;935.7028;;;;
2020/04/01 14:12:04;;;;;;;7.4;5.7;;;;;;;11.9;32.33398;935.7122;;;;
2020/04/01 14:14:53;;;;;;;6.8;5.5;;;;;;;11.49;34.08887;935.6639;;;;
2020/04/01 14:17:26;;;;;;;8.2;6;;;;;;;11.56;34.58496;935.5978;;;;
2020/04/01 14:19:55;;;;;;;7.2;5.9;;;;;;;11.05;36.13379;935.5731;;;;
2020/04/01 14:23:35;;;;;;;9.5;6;;;;;;;11.18;34.7959;935.6331;;;;
2020/04/01 14:26:31;;;;;;;8.6;5.7;;;;;;;11.35;33.41309;935.5908;;;;
2020/04/01 14:29:00;;;;;;;7.1;5.3;;;;;;;11.23;32.95801;935.5515;;;;
2020/04/01 14:31:36;;;;;;;10.1;6.3;;;;;;;11.26;33.83008;935.5133;;;;
2020/04/01 14:34:01;;;;;;;8.6;5.8;;;;;;;11.38;33.23242;935.5087;;;;
2020/04/01 14:37:34;;;;;;;8.5;6.3;;;;;;;11.03;34.80566;935.5028;;;;
2020/04/01 14:39:59;;;;;;;7.9;6;;;;;;;10.85;33.66016;935.4501;;;;
2020/04/01 14:42:24;;;;;;;7.8;6;;;;;;;10.84;34.7334;935.4462;;;;
2020/04/01 14:44:49;;;;;;;7.2;6;;;;;;;11.11;34.18359;935.4314;;;;
2020/04/01 14:47:14;;;;;;;7;5.8;;;;;;;10.89;34.77246;935.4033;;;;
2020/04/01 14:49:39;;;;;;;9.8;6;;;;;;;11.07;35.02637;935.3603;;;;
2020/04/01 14:52:04;;;;;;;11.4;6.4;;;;;;;11.05;34.99023;935.3499;;;;
2020/04/01 14:54:29;;;;;;;10.3;5.7;;;;;;;10.79;34.47852;935.351;;;;